Time;durP1;ratioP1;P1;durP2;ratioP2;P2;SDS_P1;SDS_P2;PMS_P1;PMS_P2;Temp;Humidity;BMP_temperature;BMP_pressure;BME280_temperature;BME280_humidity;BME280_pressure;Samples;Min_cycle;Max_cycle;Signal;HPM_P1;HPM_P2
2022/06/29 00:00:23;;;;;;;169.93;127.90;;;;;;;;;;5000999;28;20189;-54
2022/06/29 00:02:48;;;;;;;176.93;128.02;;;;;;;;;;4995306;28;20176;-54
2022/06/29 00:05:16;;;;;;;161.05;119.07;;;;;;;;;;4995390;28;20298;-54
2022/06/29 00:07:42;;;;;;;139.48;117.78;;;;;;;;;;5002963;28;20366;-55
2022/06/29 00:10:09;;;;;;;121.47;108.43;;;;;;;;;;5002870;28;20220;-54
2022/06/29 00:12:35;;;;;;;128.57;114.63;;;;;;;;;;5002518;28;20248;-54
2022/06/29 00:15:02;;;;;;;137.27;114.22;;;;;;;;;;5003268;28;20544;-54
2022/06/29 00:17:29;;;;;;;113.53;102.10;;;;;;;;;;5001873;28;20209;-54
2022/06/29 00:19:55;;;;;;;118.55;106.45;;;;;;;;;;5007239;28;20208;-54
2022/06/29 00:22:21;;;;;;;137.15;113.70;;;;;;;;;;5006930;28;20212;-54
2022/06/29 00:24:47;;;;;;;117.50;105.60;;;;;;;;;;5007339;28;20271;-55
2022/06/29 00:27:13;;;;;;;132.57;112.45;;;;;;;;;;5006454;28;20209;-55
2022/06/29 00:29:39;;;;;;;152.18;119.50;;;;;;;;;;5002984;28;20642;-55
2022/06/29 00:32:05;;;;;;;166.52;122.00;;;;;;;;;;5002417;28;20693;-55
2022/06/29 00:34:31;;;;;;;132.57;111.60;;;;;;;;;;5004641;28;20366;-54
2022/06/29 00:36:57;;;;;;;105.78;96.15;;;;;;;;;;5003661;28;20310;-54
2022/06/29 00:39:23;;;;;;;128.13;104.72;;;;;;;;;;4985495;28;20216;-55
2022/06/29 00:41:49;;;;;;;134.50;109.20;;;;;;;;;;5004262;28;20185;-55
2022/06/29 00:44:17;;;;;;;101.78;92.30;;;;;;;;;;4984075;28;20213;-54
2022/06/29 00:46:50;;;;;;;172.80;117.22;;;;;;;;;;4997432;28;20208;-55
2022/06/29 00:49:17;;;;;;;141.30;109.45;;;;;;;;;;5000753;28;20597;-55
2022/06/29 00:51:51;;;;;;;105.38;95.47;;;;;;;;;;5000909;28;20209;-55
2022/06/29 00:54:19;;;;;;;138.93;105.28;;;;;;;;;;4999942;28;20212;-55
2022/06/29 00:56:45;;;;;;;107.25;96.38;;;;;;;;;;5006098;28;20208;-55
2022/06/29 00:59:13;;;;;;;129.48;103.28;;;;;;;;;;5002214;28;20872;-55
2022/06/29 01:01:39;;;;;;;136.18;103.82;;;;;;;;;;4997583;28;20212;-55
2022/06/29 01:04:05;;;;;;;98.53;88.63;;;;;;;;;;5005170;28;20256;-55
2022/06/29 01:06:32;;;;;;;123.93;101.30;;;;;;;;;;5003634;28;20209;-55
2022/06/29 01:08:58;;;;;;;108.97;96.97;;;;;;;;;;5003341;28;20193;-55
2022/06/29 01:11:24;;;;;;;124.35;104.82;;;;;;;;;;5006197;28;20568;-55
2022/06/29 01:13:50;;;;;;;108.32;97.15;;;;;;;;;;5005926;28;20205;-55
2022/06/29 01:16:16;;;;;;;131.77;106.63;;;;;;;;;;5008799;28;20278;-55
2022/06/29 01:18:42;;;;;;;114.55;97.78;;;;;;;;;;5011314;28;20586;-55
2022/06/29 01:21:10;;;;;;;109.57;97.43;;;;;;;;;;5010930;28;20181;-55
2022/06/29 01:23:36;;;;;;;89.68;81.78;;;;;;;;;;5009225;28;20684;-55
2022/06/29 01:26:05;;;;;;;114.22;96.13;;;;;;;;;;5003511;28;20224;-55
2022/06/29 01:28:31;;;;;;;133.55;99.82;;;;;;;;;;5006156;28;20230;-55
2022/06/29 01:30:58;;;;;;;114.15;95.95;;;;;;;;;;5009008;28;20291;-55
2022/06/29 01:33:24;;;;;;;101.90;91.43;;;;;;;;;;5006411;28;20220;-55
2022/06/29 01:35:50;;;;;;;105.85;90.40;;;;;;;;;;5007353;28;20794;-55
2022/06/29 01:38:16;;;;;;;126.55;97.38;;;;;;;;;;5008722;28;20222;-55
2022/06/29 01:40:42;;;;;;;115.60;93.05;;;;;;;;;;5007556;28;20316;-55
2022/06/29 01:43:09;;;;;;;119.78;95.07;;;;;;;;;;5006565;28;20292;-55
2022/06/29 01:45:35;;;;;;;128.98;97.82;;;;;;;;;;5004523;28;20237;-55
2022/06/29 01:48:01;;;;;;;96.05;85.88;;;;;;;;;;5008303;28;20653;-55
2022/06/29 01:50:27;;;;;;;128.25;95.70;;;;;;;;;;5005378;28;20179;-55
2022/06/29 01:52:53;;;;;;;95.78;85.78;;;;;;;;;;5006867;28;20219;-55
2022/06/29 01:55:19;;;;;;;120.30;92.88;;;;;;;;;;5003281;28;20213;-54
2022/06/29 01:57:45;;;;;;;114.30;91.10;;;;;;;;;;5005931;28;20311;-55
2022/06/29 02:00:11;;;;;;;137.30;100.22;;;;;;;;;;5009547;28;20277;-55
2022/06/29 02:02:37;;;;;;;95.55;85.22;;;;;;;;;;5008094;28;20264;-54
2022/06/29 02:05:03;;;;;;;96.15;86.13;;;;;;;;;;5007253;28;20311;-55
2022/06/29 02:07:29;;;;;;;104.03;85.97;;;;;;;;;;5006539;28;20213;-54
2022/06/29 02:09:55;;;;;;;110.53;91.30;;;;;;;;;;5004676;28;20295;-55
2022/06/29 02:12:21;;;;;;;135.35;97.40;;;;;;;;;;5005769;28;20354;-55
2022/06/29 02:14:47;;;;;;;92.78;82.40;;;;;;;;;;5008368;28;20276;-55
2022/06/29 02:17:13;;;;;;;148.05;103.68;;;;;;;;;;5004387;28;20213;-55
2022/06/29 02:19:39;;;;;;;106.38;85.28;;;;;;;;;;5005864;28;20577;-54
2022/06/29 02:22:05;;;;;;;83.32;75.07;;;;;;;;;;5002049;28;20217;-54
2022/06/29 02:24:31;;;;;;;103.55;80.22;;;;;;;;;;5010565;28;20686;-55
2022/06/29 02:26:57;;;;;;;98.70;81.47;;;;;;;;;;5002983;28;20209;-54
2022/06/29 02:29:23;;;;;;;124.43;89.55;;;;;;;;;;5006948;28;20213;-55
2022/06/29 02:34:49;;;;;;;108.00;77.88;;;;;;;;;;5003096;28;20219;-54
2022/06/29 02:37:15;;;;;;;126.93;81.45;;;;;;;;;;5001455;28;20217;-55
2022/06/29 02:39:45;;;;;;;73.72;66.43;;;;;;;;;;5006094;28;20259;-54
2022/06/29 02:42:11;;;;;;;95.78;76.22;;;;;;;;;;5005097;28;20204;-55
2022/06/29 02:44:38;;;;;;;95.70;76.80;;;;;;;;;;5005218;28;20386;-55
2022/06/29 02:47:08;;;;;;;83.78;71.60;;;;;;;;;;5001800;28;20217;-55
2022/06/29 02:49:34;;;;;;;77.65;67.93;;;;;;;;;;5004601;28;20343;-55
2022/06/29 02:52:00;;;;;;;69.97;63.05;;;;;;;;;;5002933;28;20704;-55
2022/06/29 02:54:26;;;;;;;93.30;72.25;;;;;;;;;;5005948;28;20213;-54
2022/06/29 02:56:55;;;;;;;110.53;75.25;;;;;;;;;;5009814;28;20236;-54
2022/06/29 02:59:22;;;;;;;107.05;73.43;;;;;;;;;;5004246;28;20217;-54
2022/06/29 03:01:48;;;;;;;81.07;66.35;;;;;;;;;;4999384;28;20223;-54
2022/06/29 03:04:15;;;;;;;93.20;71.22;;;;;;;;;;5007192;28;20221;-55
2022/06/29 03:06:41;;;;;;;129.57;79.45;;;;;;;;;;5001372;28;20236;-55
2022/06/29 03:09:07;;;;;;;78.53;68.07;;;;;;;;;;4988022;28;20208;-54
2022/06/29 03:11:33;;;;;;;105.03;74.20;;;;;;;;;;5007292;28;20676;-55
2022/06/29 03:13:59;;;;;;;103.68;73.10;;;;;;;;;;4997847;28;20567;-55
2022/06/29 03:16:25;;;;;;;111.63;76.88;;;;;;;;;;5002264;28;20329;-54
2022/06/29 03:18:51;;;;;;;120.88;80.80;;;;;;;;;;5002715;28;20216;-54
2022/06/29 03:21:18;;;;;;;97.38;74.15;;;;;;;;;;5000515;28;20177;-55
2022/06/29 03:23:44;;;;;;;97.38;76.85;;;;;;;;;;5000435;28;20534;-55
2022/06/29 03:26:10;;;;;;;110.40;79.82;;;;;;;;;;5002742;28;20620;-54
2022/06/29 03:28:36;;;;;;;96.75;76.68;;;;;;;;;;5002132;28;20227;-54
2022/06/29 03:31:02;;;;;;;86.43;70.63;;;;;;;;;;5000012;28;20217;-55
2022/06/29 03:33:28;;;;;;;108.20;84.00;;;;;;;;;;5000266;28;20279;-54
2022/06/29 03:35:54;;;;;;;102.13;79.82;;;;;;;;;;5001563;28;20711;-55
2022/06/29 03:38:20;;;;;;;121.78;86.45;;;;;;;;;;4999980;28;20221;-55
2022/06/29 03:40:46;;;;;;;107.50;83.45;;;;;;;;;;5004780;28;20570;-55
2022/06/29 03:43:12;;;;;;;86.70;78.05;;;;;;;;;;5003236;28;20725;-54
2022/06/29 03:45:38;;;;;;;104.18;83.20;;;;;;;;;;5003590;28;20308;-54
2022/06/29 03:48:05;;;;;;;112.07;87.70;;;;;;;;;;5001529;28;20280;-54
2022/06/29 03:50:31;;;;;;;117.13;92.20;;;;;;;;;;5002447;28;20228;-54
2022/06/29 03:52:57;;;;;;;120.47;93.90;;;;;;;;;;5003494;28;20221;-54
2022/06/29 03:55:23;;;;;;;112.30;87.93;;;;;;;;;;5002632;28;20244;-54
2022/06/29 03:57:49;;;;;;;159.70;105.15;;;;;;;;;;4999235;28;20307;-54
2022/06/29 04:00:15;;;;;;;118.35;93.75;;;;;;;;;;4979229;28;20200;-54
2022/06/29 04:02:41;;;;;;;117.57;96.72;;;;;;;;;;4997894;28;20581;-54
2022/06/29 04:05:07;;;;;;;107.00;95.10;;;;;;;;;;5000693;28;20228;-54
2022/06/29 04:07:34;;;;;;;129.07;103.35;;;;;;;;;;5001376;28;20231;-54
2022/06/29 04:10:00;;;;;;;108.50;95.03;;;;;;;;;;5002463;28;20244;-54
2022/06/29 04:12:29;;;;;;;144.00;107.20;;;;;;;;;;5002785;28;20682;-54
2022/06/29 04:14:56;;;;;;;111.45;99.47;;;;;;;;;;5001680;28;20173;-54
2022/06/29 04:17:22;;;;;;;126.40;103.38;;;;;;;;;;5000642;28;20229;-54
2022/06/29 04:19:48;;;;;;;130.93;108.80;;;;;;;;;;4998329;28;20223;-54
2022/06/29 04:22:14;;;;;;;129.90;110.00;;;;;;;;;;5001236;28;20204;-54
2022/06/29 04:24:39;;;;;;;114.80;102.40;;;;;;;;;;5002978;28;20220;-54
2022/06/29 04:27:05;;;;;;;110.25;100.55;;;;;;;;;;5006151;28;20223;-54
2022/06/29 04:29:31;;;;;;;166.98;124.25;;;;;;;;;;5003589;28;20271;-54
2022/06/29 04:31:57;;;;;;;116.88;105.50;;;;;;;;;;5002616;28;20217;-54
2022/06/29 04:34:23;;;;;;;132.27;109.78;;;;;;;;;;4981975;28;20213;-54
2022/06/29 04:36:51;;;;;;;128.18;113.03;;;;;;;;;;5000353;28;20835;-54
2022/06/29 04:39:17;;;;;;;111.20;100.05;;;;;;;;;;5005212;28;20325;-54
2022/06/29 04:41:43;;;;;;;137.38;116.45;;;;;;;;;;5004410;28;20185;-54
2022/06/29 04:44:09;;;;;;;115.60;104.10;;;;;;;;;;5001553;28;20296;-54
2022/06/29 04:46:35;;;;;;;116.07;103.82;;;;;;;;;;4997585;28;20282;-54
2022/06/29 04:49:02;;;;;;;122.95;108.53;;;;;;;;;;4998586;28;20484;-54
2022/06/29 04:51:29;;;;;;;119.40;105.97;;;;;;;;;;4997990;28;20612;-54
2022/06/29 04:53:56;;;;;;;115.43;102.15;;;;;;;;;;5001201;28;20272;-54
2022/06/29 04:56:22;;;;;;;111.80;99.57;;;;;;;;;;5003476;28;20715;-54
2022/06/29 04:58:49;;;;;;;114.90;103.68;;;;;;;;;;5004382;28;20205;-54
2022/06/29 05:01:15;;;;;;;142.85;116.20;;;;;;;;;;4997898;28;20209;-54
2022/06/29 05:03:41;;;;;;;122.10;106.85;;;;;;;;;;4986421;28;20231;-54
2022/06/29 05:06:07;;;;;;;119.72;105.25;;;;;;;;;;5001992;28;20289;-54
2022/06/29 05:08:33;;;;;;;155.52;120.35;;;;;;;;;;5001963;28;20303;-54
2022/06/29 05:10:59;;;;;;;116.90;104.15;;;;;;;;;;4998766;28;20209;-54
2022/06/29 05:13:25;;;;;;;131.05;106.40;;;;;;;;;;5000370;28;20237;-54
2022/06/29 05:15:51;;;;;;;121.18;104.60;;;;;;;;;;4996878;28;20220;-54
2022/06/29 05:18:17;;;;;;;131.43;109.80;;;;;;;;;;5005697;28;20228;-54
2022/06/29 05:20:43;;;;;;;121.18;106.00;;;;;;;;;;5002772;28;20271;-55
2022/06/29 05:23:09;;;;;;;166.75;125.05;;;;;;;;;;4994862;28;20248;-55
2022/06/29 05:25:35;;;;;;;139.63;115.68;;;;;;;;;;5001960;28;22168;-54
2022/06/29 05:28:01;;;;;;;144.25;118.28;;;;;;;;;;4998509;28;20639;-54
2022/06/29 05:30:27;;;;;;;123.47;110.20;;;;;;;;;;4999864;28;20209;-54
2022/06/29 05:32:53;;;;;;;123.93;109.78;;;;;;;;;;5006892;28;20247;-54
2022/06/29 05:35:19;;;;;;;119.32;106.63;;;;;;;;;;5008872;28;20632;-54
2022/06/29 05:37:45;;;;;;;104.57;96.20;;;;;;;;;;5010113;28;20228;-55
2022/06/29 05:40:11;;;;;;;109.32;98.57;;;;;;;;;;5010932;28;20258;-55
2022/06/29 05:42:37;;;;;;;109.82;98.80;;;;;;;;;;5010397;28;20295;-55
2022/06/29 05:45:03;;;;;;;150.57;116.97;;;;;;;;;;5000706;28;20671;-55
2022/06/29 05:47:29;;;;;;;116.35;105.43;;;;;;;;;;5010405;28;20216;-55
2022/06/29 05:50:00;;;;;;;120.57;108.05;;;;;;;;;;5007258;28;20270;-55
2022/06/29 05:52:26;;;;;;;114.82;104.13;;;;;;;;;;5002896;28;20682;-55
2022/06/29 05:54:52;;;;;;;112.22;101.25;;;;;;;;;;4995798;28;20257;-55
2022/06/29 05:57:19;;;;;;;115.60;103.70;;;;;;;;;;5012819;28;20286;-55
2022/06/29 05:59:46;;;;;;;120.60;108.78;;;;;;;;;;5013653;28;20189;-55
2022/06/29 06:02:12;;;;;;;124.47;111.40;;;;;;;;;;5009833;28;20303;-56
2022/06/29 06:04:38;;;;;;;113.75;102.10;;;;;;;;;;5001723;28;20205;-55
2022/06/29 06:07:04;;;;;;;111.30;100.65;;;;;;;;;;5007589;28;20221;-55
2022/06/29 06:09:30;;;;;;;113.22;102.15;;;;;;;;;;5006727;28;20268;-56
2022/06/29 06:11:56;;;;;;;143.95;118.03;;;;;;;;;;5021510;28;20227;-55
2022/06/29 06:14:22;;;;;;;117.43;105.03;;;;;;;;;;4999688;28;20328;-55
2022/06/29 06:16:48;;;;;;;130.95;117.53;;;;;;;;;;5007099;28;20220;-55
2022/06/29 06:19:14;;;;;;;120.35;108.53;;;;;;;;;;5005502;28;20205;-55
2022/06/29 06:21:40;;;;;;;196.25;135.90;;;;;;;;;;5001015;28;20307;-57
2022/06/29 06:24:06;;;;;;;167.77;123.82;;;;;;;;;;4992056;28;20656;-57
2022/06/29 06:26:32;;;;;;;141.38;125.82;;;;;;;;;;5001043;28;20240;-56
2022/06/29 06:28:58;;;;;;;223.07;154.20;;;;;;;;;;4991598;28;20225;-57
2022/06/29 06:31:25;;;;;;;277.77;176.70;;;;;;;;;;4988901;28;20213;-55
2022/06/29 06:33:51;;;;;;;371.88;178.07;;;;;;;;;;4973375;28;20224;-59
2022/06/29 06:36:17;;;;;;;263.73;157.00;;;;;;;;;;4983560;28;20284;-57
2022/06/29 06:38:43;;;;;;;222.02;146.55;;;;;;;;;;4992288;28;20654;-57
2022/06/29 06:41:21;;;;;;;211.60;147.23;;;;;;;;;;4990607;28;20237;-57
2022/06/29 06:43:51;;;;;;;204.00;142.73;;;;;;;;;;4990168;28;20223;-57
2022/06/29 06:46:17;;;;;;;274.83;163.07;;;;;;;;;;4993237;28;20223;-58
2022/06/29 06:48:43;;;;;;;172.57;147.07;;;;;;;;;;4993280;28;20216;-56
2022/06/29 06:51:10;;;;;;;184.95;145.65;;;;;;;;;;4973814;28;20725;-57
2022/06/29 06:53:36;;;;;;;230.10;154.48;;;;;;;;;;4996480;28;20336;-58
2022/06/29 06:56:02;;;;;;;282.85;169.45;;;;;;;;;;4992711;28;20226;-57
2022/06/29 06:58:28;;;;;;;291.60;175.38;;;;;;;;;;4984858;28;20224;-55
2022/06/29 07:00:54;;;;;;;228.63;159.25;;;;;;;;;;4982778;28;20220;-55
2022/06/29 07:03:20;;;;;;;246.45;164.82;;;;;;;;;;4988213;28;20221;-55
2022/06/29 07:05:46;;;;;;;272.27;180.73;;;;;;;;;;4988448;28;20937;-55
2022/06/29 07:08:12;;;;;;;261.20;176.18;;;;;;;;;;4995681;28;20305;-55
2022/06/29 07:10:38;;;;;;;517.58;252.07;;;;;;;;;;4988245;28;20270;-55
2022/06/29 07:13:04;;;;;;;268.52;188.00;;;;;;;;;;4973421;28;20225;-55
2022/06/29 07:15:30;;;;;;;231.63;189.18;;;;;;;;;;4983679;28;20225;-54
2022/06/29 07:17:56;;;;;;;378.45;217.55;;;;;;;;;;4977408;28;20359;-55
2022/06/29 07:20:27;;;;;;;229.18;186.05;;;;;;;;;;4985214;28;20217;-55
2022/06/29 07:22:53;;;;;;;258.60;192.05;;;;;;;;;;4991117;28;20243;-55
2022/06/29 07:25:20;;;;;;;279.67;197.00;;;;;;;;;;4987114;28;20756;-55
2022/06/29 07:27:46;;;;;;;299.25;212.27;;;;;;;;;;4984895;28;20286;-56
2022/06/29 07:30:12;;;;;;;343.23;229.63;;;;;;;;;;4985938;28;20657;-55
2022/06/29 07:32:38;;;;;;;248.48;195.00;;;;;;;;;;4987083;28;20216;-55
2022/06/29 07:35:04;;;;;;;242.38;194.20;;;;;;;;;;4998851;28;20431;-56
2022/06/29 07:37:30;;;;;;;277.70;207.50;;;;;;;;;;5000765;28;20225;-56
2022/06/29 07:39:56;;;;;;;183.57;162.70;;;;;;;;;;5003649;28;20235;-56
2022/06/29 07:42:22;;;;;;;351.13;204.00;;;;;;;;;;4993528;28;20225;-55
2022/06/29 07:44:48;;;;;;;223.82;171.68;;;;;;;;;;4996181;28;20193;-55
2022/06/29 07:47:14;;;;;;;235.68;195.35;;;;;;;;;;5001349;28;20227;-55
2022/06/29 07:49:40;;;;;;;270.45;207.50;;;;;;;;;;5000082;28;20614;-55
2022/06/29 07:52:06;;;;;;;262.85;189.18;;;;;;;;;;4984247;28;20217;-55
2022/06/29 07:54:32;;;;;;;483.80;271.67;;;;;;;;;;4980419;28;20773;-56
2022/06/29 07:56:58;;;;;;;267.25;213.80;;;;;;;;;;4992308;28;20221;-56
2022/06/29 07:59:24;;;;;;;344.63;237.65;;;;;;;;;;4987807;28;20593;-56
2022/06/29 08:01:50;;;;;;;250.25;203.60;;;;;;;;;;4995760;28;20212;-56
2022/06/29 08:04:15;;;;;;;237.80;193.95;;;;;;;;;;5000082;28;20220;-56
2022/06/29 08:06:41;;;;;;;242.10;209.05;;;;;;;;;;5003510;28;20216;-56
2022/06/29 08:09:07;;;;;;;279.08;222.00;;;;;;;;;;5000342;28;20688;-56
2022/06/29 08:11:33;;;;;;;266.60;223.32;;;;;;;;;;5000786;28;20224;-56
2022/06/29 08:13:59;;;;;;;230.32;199.05;;;;;;;;;;5002753;28;20609;-56
2022/06/29 08:16:25;;;;;;;262.88;222.13;;;;;;;;;;4996964;28;20221;-56
2022/06/29 08:18:51;;;;;;;240.77;209.27;;;;;;;;;;5001367;28;20589;-56
2022/06/29 08:21:17;;;;;;;266.67;222.90;;;;;;;;;;5005789;28;20189;-54
2022/06/29 08:23:43;;;;;;;237.85;197.25;;;;;;;;;;4991078;28;20173;-55
2022/06/29 08:26:09;;;;;;;245.23;203.32;;;;;;;;;;4991508;28;20225;-55
2022/06/29 08:28:35;;;;;;;361.95;233.10;;;;;;;;;;4993830;28;20231;-54
2022/06/29 08:31:01;;;;;;;286.42;212.70;;;;;;;;;;4995099;28;20592;-55
2022/06/29 08:33:27;;;;;;;230.05;202.32;;;;;;;;;;4998421;28;21051;-54
2022/06/29 08:35:53;;;;;;;298.88;227.20;;;;;;;;;;5001567;28;20233;-55
2022/06/29 08:38:19;;;;;;;338.23;233.98;;;;;;;;;;4988283;28;20347;-54
2022/06/29 08:40:46;;;;;;;280.45;206.15;;;;;;;;;;4998629;28;20213;-55
2022/06/29 08:43:13;;;;;;;318.08;224.57;;;;;;;;;;4997804;28;20204;-55
2022/06/29 08:45:43;;;;;;;314.40;230.02;;;;;;;;;;4996564;28;20263;-55
2022/06/29 08:48:10;;;;;;;320.15;233.70;;;;;;;;;;4999337;28;20181;-55
2022/06/29 08:50:37;;;;;;;303.55;233.23;;;;;;;;;;4986139;28;20267;-55
2022/06/29 08:53:05;;;;;;;261.40;204.55;;;;;;;;;;4997521;28;20225;-55
2022/06/29 08:55:31;;;;;;;292.85;225.55;;;;;;;;;;5004904;28;20719;-54
2022/06/29 08:57:57;;;;;;;279.73;218.80;;;;;;;;;;5003012;28;20557;-55
2022/06/29 09:00:24;;;;;;;323.38;228.27;;;;;;;;;;4998330;28;20224;-55
2022/06/29 09:02:50;;;;;;;255.85;202.85;;;;;;;;;;5006123;28;20180;-54
2022/06/29 09:05:17;;;;;;;352.17;237.20;;;;;;;;;;5002621;28;20275;-55
2022/06/29 09:07:43;;;;;;;340.95;231.70;;;;;;;;;;4981503;28;20212;-54
2022/06/29 09:10:13;;;;;;;336.25;235.27;;;;;;;;;;4990889;28;20227;-55
2022/06/29 09:12:39;;;;;;;315.15;232.70;;;;;;;;;;4996710;28;20257;-54
2022/06/29 09:15:09;;;;;;;360.85;259.33;;;;;;;;;;4985883;28;20188;-55
2022/06/29 09:17:36;;;;;;;282.67;237.82;;;;;;;;;;5006128;28;20216;-53
2022/06/29 09:20:03;;;;;;;255.55;227.43;;;;;;;;;;5005394;28;20213;-54
2022/06/29 09:22:29;;;;;;;337.20;271.75;;;;;;;;;;4994262;28;20697;-53
2022/06/29 09:24:55;;;;;;;384.30;283.13;;;;;;;;;;4993511;28;20213;-55
2022/06/29 09:27:24;;;;;;;357.67;280.88;;;;;;;;;;5000605;28;20220;-55
2022/06/29 09:29:50;;;;;;;295.50;254.80;;;;;;;;;;4999874;28;20179;-56
2022/06/29 09:32:16;;;;;;;268.88;226.30;;;;;;;;;;5009745;28;20208;-56
2022/06/29 09:34:45;;;;;;;282.42;240.07;;;;;;;;;;5011729;28;20213;-56
2022/06/29 09:37:15;;;;;;;304.50;248.88;;;;;;;;;;5009110;28;20620;-56
2022/06/29 09:39:45;;;;;;;252.55;226.15;;;;;;;;;;5001555;28;20257;-56
2022/06/29 09:42:27;;;;;;;286.70;233.90;;;;;;;;;;5004746;28;20192;-55
2022/06/29 09:44:53;;;;;;;294.38;237.85;;;;;;;;;;5005165;28;20189;-56
2022/06/29 09:47:20;;;;;;;312.50;246.63;;;;;;;;;;4996823;28;20220;-56
2022/06/29 09:49:59;;;;;;;270.33;227.45;;;;;;;;;;5007763;28;20358;-55
2022/06/29 09:52:25;;;;;;;256.23;212.32;;;;;;;;;;5007520;28;20708;-55
2022/06/29 09:54:55;;;;;;;272.50;224.93;;;;;;;;;;5011066;28;20299;-56
2022/06/29 09:57:26;;;;;;;295.70;225.52;;;;;;;;;;4997741;28;20240;-55
2022/06/29 10:02:42;;;;;;;268.05;216.90;;;;;;;;;;5009820;28;20709;-56
2022/06/29 10:05:08;;;;;;;525.10;331.00;;;;;;;;;;4992837;28;20589;-55
2022/06/29 10:07:36;;;;;;;367.85;246.95;;;;;;;;;;4986794;28;20209;-56
2022/06/29 10:10:04;;;;;;;240.18;209.00;;;;;;;;;;4998041;28;24570;-56
2022/06/29 10:15:30;;;;;;;394.55;269.33;;;;;;;;;;4974044;28;20224;-55
2022/06/29 10:18:03;;;;;;;317.55;245.70;;;;;;;;;;4997081;28;20212;-55
2022/06/29 10:20:29;;;;;;;295.13;234.52;;;;;;;;;;4996124;28;20212;-56
2022/06/29 10:22:55;;;;;;;334.90;244.75;;;;;;;;;;4998224;28;20216;-55
2022/06/29 10:25:28;;;;;;;288.88;226.30;;;;;;;;;;4997955;28;20561;-55
2022/06/29 10:28:19;;;;;;;331.50;232.52;;;;;;;;;;4979405;28;20282;-56
2022/06/29 10:30:45;;;;;;;250.52;211.30;;;;;;;;;;4992017;28;20323;-55
2022/06/29 10:33:30;;;;;;;358.55;238.95;;;;;;;;;;4991683;28;20177;-55
2022/06/29 10:36:04;;;;;;;309.45;235.20;;;;;;;;;;4993646;28;20203;-55
2022/06/29 10:38:33;;;;;;;253.63;216.00;;;;;;;;;;4995162;28;20228;-56
2022/06/29 10:41:07;;;;;;;452.00;260.25;;;;;;;;;;4983267;28;20217;-55
2022/06/29 10:43:33;;;;;;;345.95;228.48;;;;;;;;;;4985846;28;20228;-55
2022/06/29 10:45:59;;;;;;;357.20;257.17;;;;;;;;;;4978639;28;20220;-55
2022/06/29 10:48:26;;;;;;;326.23;244.25;;;;;;;;;;4985583;28;20263;-55
2022/06/29 10:50:52;;;;;;;377.85;264.33;;;;;;;;;;4994261;28;20181;-56
2022/06/29 10:53:19;;;;;;;328.90;236.90;;;;;;;;;;4985526;28;20754;-56
2022/06/29 10:55:47;;;;;;;331.63;245.65;;;;;;;;;;4992004;28;20316;-56
2022/06/29 10:58:13;;;;;;;399.65;262.10;;;;;;;;;;4978934;28;20233;-56
2022/06/29 11:00:40;;;;;;;378.60;249.77;;;;;;;;;;4972148;28;20225;-55
2022/06/29 11:03:11;;;;;;;295.50;226.63;;;;;;;;;;4993809;28;20839;-56
2022/06/29 11:05:38;;;;;;;324.70;248.38;;;;;;;;;;4986242;28;20207;-56
2022/06/29 11:13:33;;;;;;;327.15;248.25;;;;;;;;;;4998865;28;20230;-55
2022/06/29 11:16:00;;;;;;;362.25;257.95;;;;;;;;;;4980967;28;20316;-56
2022/06/29 11:18:27;;;;;;;426.33;262.73;;;;;;;;;;4978186;28;20242;-55
2022/06/29 11:20:54;;;;;;;357.40;244.95;;;;;;;;;;4973264;28;20185;-55
2022/06/29 11:23:21;;;;;;;458.90;271.92;;;;;;;;;;4971707;28;20252;-55
2022/06/29 11:25:48;;;;;;;352.48;257.73;;;;;;;;;;4977472;28;20227;-56
2022/06/29 11:28:16;;;;;;;356.40;226.63;;;;;;;;;;4978332;28;20224;-55
2022/06/29 11:30:42;;;;;;;395.65;239.35;;;;;;;;;;4983611;28;20228;-55
2022/06/29 11:33:10;;;;;;;395.45;239.45;;;;;;;;;;4979116;28;20196;-55
2022/06/29 11:35:37;;;;;;;367.17;254.32;;;;;;;;;;4974731;28;20197;-55
2022/06/29 11:38:05;;;;;;;453.15;269.52;;;;;;;;;;4974324;28;20240;-55
2022/06/29 11:40:35;;;;;;;406.83;253.05;;;;;;;;;;4966460;28;20226;-56
2022/06/29 11:43:19;;;;;;;375.13;253.52;;;;;;;;;;4967418;28;20290;-55
2022/06/29 11:45:53;;;;;;;361.40;266.23;;;;;;;;;;4980187;28;20232;-56
2022/06/29 11:48:23;;;;;;;359.85;259.20;;;;;;;;;;4999959;28;20375;-55
2022/06/29 11:50:53;;;;;;;364.27;264.77;;;;;;;;;;4960724;28;20254;-55
2022/06/29 11:53:37;;;;;;;367.70;263.95;;;;;;;;;;4977830;28;20220;-55
2022/06/29 11:56:09;;;;;;;436.35;269.73;;;;;;;;;;4973746;28;20213;-56
2022/06/29 11:58:35;;;;;;;381.70;258.65;;;;;;;;;;4976117;28;20337;-56
2022/06/29 12:01:01;;;;;;;380.42;254.85;;;;;;;;;;4981478;28;20319;-55
2022/06/29 12:03:27;;;;;;;348.05;248.15;;;;;;;;;;4987781;28;20403;-56
2022/06/29 12:06:00;;;;;;;345.67;268.50;;;;;;;;;;4994285;28;20955;-56
2022/06/29 12:08:29;;;;;;;376.88;265.70;;;;;;;;;;4993059;28;20208;-55
2022/06/29 12:10:56;;;;;;;455.98;281.48;;;;;;;;;;4965915;28;20270;-55
2022/06/29 12:13:23;;;;;;;407.98;269.25;;;;;;;;;;4964802;28;21205;-55
2022/06/29 12:15:48;;;;;;;365.88;270.08;;;;;;;;;;4982017;28;20597;-56
2022/06/29 12:18:16;;;;;;;417.08;286.17;;;;;;;;;;4975047;28;20207;-55
2022/06/29 12:20:42;;;;;;;284.08;228.25;;;;;;;;;;5001046;28;20312;-56
2022/06/29 12:23:08;;;;;;;317.38;236.23;;;;;;;;;;4994342;28;20694;-56
2022/06/29 12:25:34;;;;;;;390.90;276.20;;;;;;;;;;4998731;28;20245;-56
2022/06/29 12:27:59;;;;;;;394.13;272.30;;;;;;;;;;4981415;28;20570;-57
2022/06/29 12:30:25;;;;;;;359.15;261.88;;;;;;;;;;4984317;28;20217;-57
2022/06/29 12:32:51;;;;;;;381.50;261.98;;;;;;;;;;4987469;28;20189;-57
2022/06/29 12:35:17;;;;;;;437.75;280.50;;;;;;;;;;4970935;28;20205;-57
2022/06/29 12:37:44;;;;;;;474.35;289.60;;;;;;;;;;4974450;28;20221;-57
2022/06/29 12:40:14;;;;;;;379.98;254.02;;;;;;;;;;4990999;28;20229;-57
2022/06/29 12:42:40;;;;;;;435.33;273.60;;;;;;;;;;4975567;28;20307;-58
2022/06/29 12:45:07;;;;;;;428.92;269.65;;;;;;;;;;4975006;28;20228;-57
2022/06/29 12:47:33;;;;;;;257.52;217.85;;;;;;;;;;4988256;28;20219;-56
2022/06/29 12:50:01;;;;;;;359.00;252.65;;;;;;;;;;4978523;28;20227;-57
2022/06/29 12:52:27;;;;;;;396.08;254.05;;;;;;;;;;4976921;28;20216;-56
2022/06/29 12:54:53;;;;;;;415.75;266.15;;;;;;;;;;4976788;28;20216;-57
2022/06/29 12:57:19;;;;;;;359.00;266.48;;;;;;;;;;4985510;28;20749;-57
2022/06/29 12:59:45;;;;;;;287.27;240.60;;;;;;;;;;4988706;28;20259;-57
2022/06/29 13:02:12;;;;;;;316.90;242.57;;;;;;;;;;4986994;28;20313;-56
2022/06/29 13:04:38;;;;;;;398.83;275.65;;;;;;;;;;4987619;28;20217;-56
2022/06/29 13:07:04;;;;;;;407.00;280.83;;;;;;;;;;4978745;28;20225;-57
2022/06/29 13:09:31;;;;;;;339.70;255.10;;;;;;;;;;4981243;28;20609;-56
2022/06/29 13:11:57;;;;;;;373.88;267.73;;;;;;;;;;4975063;28;20192;-57
2022/06/29 13:14:23;;;;;;;367.30;266.33;;;;;;;;;;4979420;28;20216;-56
2022/06/29 13:16:48;;;;;;;311.20;241.18;;;;;;;;;;4974996;28;20380;-55
2022/06/29 13:19:15;;;;;;;350.83;252.38;;;;;;;;;;4987120;28;20778;-56
2022/06/29 13:21:41;;;;;;;311.05;240.35;;;;;;;;;;4990199;28;20696;-56
2022/06/29 13:24:07;;;;;;;463.13;307.58;;;;;;;;;;4981686;28;20189;-57
2022/06/29 13:26:34;;;;;;;316.90;235.90;;;;;;;;;;4991501;28;20235;-57
2022/06/29 13:29:00;;;;;;;247.85;208.20;;;;;;;;;;4999373;28;20437;-56
2022/06/29 13:31:26;;;;;;;325.17;237.13;;;;;;;;;;4994424;28;20243;-56
2022/06/29 13:33:51;;;;;;;383.90;272.08;;;;;;;;;;4988500;28;20205;-56
2022/06/29 13:36:17;;;;;;;381.83;261.23;;;;;;;;;;4979951;28;20215;-56
2022/06/29 13:38:43;;;;;;;379.10;261.70;;;;;;;;;;4985961;28;20271;-56
2022/06/29 13:41:09;;;;;;;294.05;231.43;;;;;;;;;;4988096;28;20244;-56
2022/06/29 13:43:36;;;;;;;284.60;222.48;;;;;;;;;;4985512;28;20213;-57
2022/06/29 13:46:01;;;;;;;297.92;239.60;;;;;;;;;;4988022;28;20728;-57
2022/06/29 13:48:28;;;;;;;277.58;233.23;;;;;;;;;;4996339;28;20212;-55
2022/06/29 13:50:54;;;;;;;264.85;220.60;;;;;;;;;;5002381;28;20630;-56
2022/06/29 13:53:20;;;;;;;320.70;247.65;;;;;;;;;;4996823;28;20251;-56
2022/06/29 13:55:46;;;;;;;281.27;237.88;;;;;;;;;;5000207;28;20268;-56
2022/06/29 13:58:12;;;;;;;354.88;250.55;;;;;;;;;;4993530;28;20220;-56
2022/06/29 14:00:38;;;;;;;340.80;247.25;;;;;;;;;;4995862;28;20224;-56
2022/06/29 14:03:05;;;;;;;338.90;247.27;;;;;;;;;;4991685;28;20218;-56
2022/06/29 14:05:31;;;;;;;318.15;247.68;;;;;;;;;;5001057;28;20200;-55
2022/06/29 14:07:57;;;;;;;310.90;255.07;;;;;;;;;;4995884;28;20299;-55